Time;durP1;ratioP1;P1;durP2;ratioP2;P2;SDS_P1;SDS_P2;PMS_P1;PMS_P2;Temp;Humidity;BMP_temperature;BMP_pressure;BME280_temperature;BME280_humidity;BME280_pressure;Samples;Min_cycle;Max_cycle;Signal;HPM_P1;HPM_P2
2023/04/20 00:01:47;;;;;;;3.40;2.80;;;12.50;35.30;;;;;;5048825;28;20052;-45
2023/04/20 00:04:14;;;;;;;5.47;3.05;;;12.40;35.70;;;;;;5044679;28;20699;-48
2023/04/20 00:06:42;;;;;;;5.10;3.03;;;12.40;35.70;;;;;;5049597;28;20053;-45
2023/04/20 00:09:14;;;;;;;5.05;2.92;;;12.40;35.90;;;;;;5049394;28;20049;-48
2023/04/20 00:11:41;;;;;;;4.10;2.88;;;12.30;35.70;;;;;;5040773;28;20045;-47
2023/04/20 00:14:07;;;;;;;3.00;2.65;;;12.30;35.50;;;;;;5044248;28;20048;-45
2023/04/20 00:16:34;;;;;;;4.60;3.53;;;12.20;35.30;;;;;;5048850;28;20060;-44
2023/04/20 00:19:03;;;;;;;3.72;3.08;;;12.20;35.70;;;;;;5049346;28;20036;-46
2023/04/20 00:21:32;;;;;;;6.75;2.75;;;12.10;35.50;;;;;;5048721;28;20037;-46
2023/04/20 00:23:59;;;;;;;3.20;2.78;;;12.10;35.90;;;;;;5044142;28;20072;-48
2023/04/20 00:26:25;;;;;;;4.80;2.90;;;12.10;35.60;;;;;;5048706;28;20068;-46
2023/04/20 00:28:52;;;;;;;2.92;2.60;;;12.10;35.50;;;;;;5049320;28;20044;-45
2023/04/20 00:31:19;;;;;;;6.53;3.15;;;12.10;35.60;;;;;;5042550;28;20076;-44
2023/04/20 00:33:47;;;;;;;4.32;2.63;;;12.00;35.70;;;;;;5010415;28;20087;-46
2023/04/20 00:36:13;;;;;;;3.83;2.80;;;12.00;35.80;;;;;;5047077;28;20048;-45
2023/04/20 00:38:40;;;;;;;3.72;2.42;;;12.00;35.90;;;;;;5044343;28;20048;-44
2023/04/20 00:41:07;;;;;;;4.03;3.10;;;11.90;35.90;;;;;;5048213;28;20041;-45
2023/04/20 00:43:33;;;;;;;4.25;3.08;;;11.90;36.20;;;;;;5030214;28;20045;-45
2023/04/20 00:46:02;;;;;;;2.85;2.28;;;11.90;36.10;;;;;;5045731;28;20048;-48
2023/04/20 00:48:29;;;;;;;3.83;3.50;;;11.80;36.40;;;;;;5031963;28;20094;-47
2023/04/20 00:50:55;;;;;;;3.60;2.85;;;11.80;36.70;;;;;;5030189;28;20049;-46
2023/04/20 00:53:22;;;;;;;4.38;3.10;;;11.80;37.00;;;;;;5012693;28;20045;-46
2023/04/20 00:55:50;;;;;;;4.13;3.10;;;11.70;36.90;;;;;;5024569;28;20056;-47
2023/04/20 00:58:16;;;;;;;4.15;3.08;;;11.70;36.80;;;;;;5047816;28;20045;-48
2023/04/20 01:00:43;;;;;;;4.32;2.67;;;11.60;36.50;;;;;;5030466;28;20064;-44
2023/04/20 01:03:10;;;;;;;3.13;2.83;;;11.60;36.60;;;;;;5023845;28;20038;-46
2023/04/20 01:05:39;;;;;;;3.90;3.33;;;11.60;36.80;;;;;;5045896;28;20099;-46
2023/04/20 01:08:05;;;;;;;2.95;2.38;;;11.50;36.90;;;;;;5034273;28;20041;-46
2023/04/20 01:10:35;;;;;;;3.22;2.50;;;11.50;36.80;;;;;;5033743;28;20523;-45
2023/04/20 01:13:02;;;;;;;3.97;2.92;;;11.50;37.60;;;;;;5029701;28;20060;-46
2023/04/20 01:15:34;;;;;;;2.85;2.65;;;11.40;37.00;;;;;;5036858;28;20102;-45
2023/04/20 01:18:02;;;;;;;3.40;2.97;;;11.40;37.40;;;;;;5053175;28;20505;-46
2023/04/20 01:20:29;;;;;;;5.10;3.63;;;11.40;37.50;;;;;;5033716;28;20068;-46
2023/04/20 01:22:56;;;;;;;4.35;3.08;;;11.40;37.70;;;;;;5026524;28;20049;-43
2023/04/20 01:25:22;;;;;;;3.90;3.17;;;11.40;37.80;;;;;;5040738;28;20040;-48
2023/04/20 01:27:49;;;;;;;3.30;2.78;;;11.40;37.60;;;;;;5034352;28;20048;-46
2023/04/20 01:30:19;;;;;;;5.47;2.65;;;11.40;37.60;;;;;;5050492;28;20048;-46
2023/04/20 01:32:45;;;;;;;4.10;2.38;;;11.40;37.50;;;;;;5047681;28;20160;-44
2023/04/20 01:35:16;;;;;;;3.30;2.58;;;11.50;37.60;;;;;;5040548;28;20484;-48
2023/04/20 01:37:44;;;;;;;;;;;11.50;37.70;;;;;;5041409;28;20456;-46
2023/04/20 01:40:12;;;;;;;3.33;2.28;;;11.60;37.20;;;;;;5051700;28;19925;-47
2023/04/20 01:42:41;;;;;;;6.65;2.42;;;11.50;37.00;;;;;;5052050;28;20550;-47
2023/04/20 01:45:08;;;;;;;4.72;2.65;;;11.50;36.70;;;;;;5047572;28;20051;-46
2023/04/20 01:47:36;;;;;;;3.13;2.47;;;11.50;36.40;;;;;;5034482;28;20412;-47
2023/04/20 01:50:06;;;;;;;3.38;2.15;;;11.50;36.50;;;;;;5051041;28;20041;-46
2023/04/20 01:52:32;;;;;;;4.55;2.67;;;11.50;36.20;;;;;;5047864;28;20037;-47
2023/04/20 01:54:59;;;;;;;3.97;2.53;;;11.40;36.20;;;;;;5031904;28;20029;-46
2023/04/20 01:57:26;;;;;;;2.30;2.10;;;11.40;36.30;;;;;;5033411;28;20048;-48
2023/04/20 01:59:57;;;;;;;2.78;2.03;;;11.40;36.50;;;;;;5031831;28;20084;-44
2023/04/20 02:02:24;;;;;;;4.82;2.60;;;11.40;36.60;;;;;;5025615;28;20048;-45
2023/04/20 02:04:52;;;;;;;4.05;2.33;;;11.40;36.60;;;;;;5044128;28;20536;-48
2023/04/20 02:07:21;;;;;;;4.03;1.98;;;11.40;36.60;;;;;;5023402;28;20060;-46
2023/04/20 02:09:50;;;;;;;5.03;2.40;;;11.40;36.50;;;;;;5049713;28;20049;-47
2023/04/20 02:12:17;;;;;;;4.57;2.50;;;11.40;36.60;;;;;;5031498;28;20049;-46
2023/04/20 02:14:46;;;;;;;3.53;2.80;;;11.40;36.50;;;;;;5043812;28;20045;-45
2023/04/20 02:17:13;;;;;;;3.45;2.88;;;11.50;36.70;;;;;;5049618;28;20041;-45
2023/04/20 02:19:40;;;;;;;4.95;2.40;;;11.50;36.50;;;;;;5050453;28;20036;-45
2023/04/20 02:22:06;;;;;;;3.67;2.47;;;11.50;36.60;;;;;;5043321;28;20407;-47
2023/04/20 02:24:33;;;;;;;2.72;2.17;;;11.60;36.50;;;;;;5031432;28;20049;-45
2023/04/20 02:27:02;;;;;;;4.30;2.28;;;11.60;36.50;;;;;;5032001;28;20500;-44
2023/04/20 02:29:30;;;;;;;3.10;2.63;;;11.60;36.70;;;;;;5031798;28;20045;-46
2023/04/20 02:32:00;;;;;;;2.90;2.08;;;11.70;36.70;;;;;;5022509;28;20425;-46
2023/04/20 02:34:27;;;;;;;2.47;1.90;;;11.70;36.30;;;;;;5038827;28;20038;-47
2023/04/20 02:36:55;;;;;;;3.78;2.08;;;11.70;36.20;;;;;;5041873;28;20501;-46
2023/04/20 02:39:25;;;;;;;2.53;2.33;;;11.70;36.20;;;;;;5049502;28;20068;-48
2023/04/20 02:41:53;;;;;;;2.33;2.05;;;11.70;36.30;;;;;;5032125;28;20552;-45
2023/04/20 02:44:20;;;;;;;4.10;2.35;;;11.70;36.20;;;;;;5030309;28;20041;-46
2023/04/20 02:46:47;;;;;;;4.82;2.72;;;11.70;36.40;;;;;;5027604;28;20139;-44
2023/04/20 02:49:15;;;;;;;2.83;2.38;;;11.70;36.30;;;;;;5033028;28;20064;-46
2023/04/20 02:51:48;;;;;;;5.17;2.43;;;11.70;36.30;;;;;;4996223;28;1029334;-46
2023/04/20 02:54:15;;;;;;;3.53;2.15;;;11.70;36.30;;;;;;5029374;28;20507;-49
2023/04/20 02:56:43;;;;;;;3.38;2.08;;;11.70;36.40;;;;;;5032821;28;20045;-46
2023/04/20 02:59:10;;;;;;;2.92;2.20;;;11.70;36.50;;;;;;5032121;28;20047;-44
2023/04/20 03:01:53;;;;;;;6.15;2.25;;;11.70;36.60;;;;;;5027089;28;20053;-48
2023/04/20 03:04:24;;;;;;;4.45;2.25;;;11.70;36.60;;;;;;5039926;28;20046;-46
2023/04/20 03:07:00;;;;;;;2.38;2.17;;;11.70;36.50;;;;;;5032119;28;20053;-46
2023/04/20 03:09:29;;;;;;;5.78;2.58;;;11.70;36.60;;;;;;5031507;28;20041;-46
2023/04/20 03:12:05;;;;;;;5.07;2.28;;;11.60;36.60;;;;;;5025718;28;20140;-47
2023/04/20 03:14:50;;;;;;;2.88;2.15;;;11.70;36.70;;;;;;5027253;28;20041;-46
2023/04/20 03:17:21;;;;;;;5.67;2.27;;;11.60;36.70;;;;;;5031954;28;20045;-47
2023/04/20 03:19:48;;;;;;;3.65;2.08;;;11.60;36.80;;;;;;5022245;28;20424;-46
2023/04/20 03:22:18;;;;;;;6.57;2.70;;;11.50;37.00;;;;;;5032023;28;20734;-46
2023/04/20 03:24:51;;;;;;;2.95;2.55;;;11.60;37.10;;;;;;5026961;28;20044;-45
2023/04/20 03:27:37;;;;;;;3.63;2.70;;;11.50;38.00;;;;;;5010973;28;20057;-46
2023/04/20 03:30:09;;;;;;;4.57;2.65;;;11.50;37.40;;;;;;5029082;28;20052;-45
2023/04/20 03:32:37;;;;;;;3.00;2.53;;;11.50;37.40;;;;;;5033407;22;20040;-48
2023/04/20 03:35:05;;;;;;;5.93;2.80;;;11.50;37.60;;;;;;5012368;28;20068;-50
2023/04/20 03:37:34;;;;;;;3.22;2.25;;;11.40;37.70;;;;;;5012013;28;20046;-45
2023/04/20 03:40:00;;;;;;;4.40;2.58;;;11.40;37.80;;;;;;5016639;28;20042;-49
2023/04/20 03:42:27;;;;;;;3.20;2.55;;;11.40;38.00;;;;;;5018560;28;20042;-45
2023/04/20 03:44:53;;;;;;;5.95;2.70;;;11.40;38.00;;;;;;5014900;28;20045;-46
2023/04/20 03:47:23;;;;;;;4.65;2.42;;;11.40;38.00;;;;;;5007521;28;20133;-50
2023/04/20 03:49:49;;;;;;;2.60;2.40;;;11.40;38.20;;;;;;5001975;28;20682;-49
2023/04/20 03:52:16;;;;;;;3.97;2.58;;;11.40;38.20;;;;;;5010012;28;20049;-48
2023/04/20 03:54:45;;;;;;;4.25;2.40;;;11.40;38.30;;;;;;5019517;28;20038;-46
2023/04/20 03:57:14;;;;;;;4.78;2.90;;;11.40;38.40;;;;;;5004048;28;20073;-50
2023/04/20 03:59:42;;;;;;;4.00;2.50;;;11.30;38.50;;;;;;4997803;28;20046;-49
2023/04/20 04:02:12;;;;;;;5.15;2.38;;;11.30;38.60;;;;;;5006300;28;20046;-50
2023/04/20 04:04:42;;;;;;;4.13;2.45;;;11.30;38.70;;;;;;5003779;28;20099;-48
2023/04/20 04:07:09;;;;;;;4.63;2.67;;;11.30;38.70;;;;;;5014384;28;20096;-50
2023/04/20 04:09:38;;;;;;;4.30;3.03;;;11.30;38.80;;;;;;4996117;28;20124;-49
2023/04/20 04:12:09;;;;;;;3.13;2.00;;;11.30;38.90;;;;;;5008747;28;20046;-46
2023/04/20 04:14:36;;;;;;;3.13;2.40;;;11.30;39.20;;;;;;5008678;28;20506;-48
2023/04/20 04:17:03;;;;;;;2.75;2.28;;;11.30;39.20;;;;;;5003803;28;20092;-48
2023/04/20 04:19:35;;;;;;;5.80;2.95;;;11.30;39.30;;;;;;4991453;28;20034;-47
2023/04/20 04:22:02;;;;;;;3.72;2.50;;;11.30;39.50;;;;;;5006115;28;20497;-49
2023/04/20 04:24:37;;;;;;;3.95;2.67;;;11.30;39.40;;;;;;5012747;28;20069;-48
2023/04/20 04:27:07;;;;;;;2.65;2.03;;;11.30;39.50;;;;;;5011858;28;20077;-49
2023/04/20 04:29:40;;;;;;;3.72;2.55;;;11.20;39.50;;;;;;5011592;28;20136;-47
2023/04/20 04:32:12;;;;;;;5.75;3.30;;;11.20;39.60;;;;;;5004838;28;20100;-47
2023/04/20 04:34:39;;;;;;;2.83;2.35;;;11.30;39.90;;;;;;5025234;28;20037;-48
2023/04/20 04:37:08;;;;;;;3.72;2.92;;;11.20;40.00;;;;;;5009052;28;20052;-48
2023/04/20 04:39:43;;;;;;;4.43;2.28;;;11.20;40.10;;;;;;5017910;28;20053;-45
2023/04/20 04:42:19;;;;;;;4.30;2.60;;;11.20;40.20;;;;;;5010174;28;20053;-50
2023/04/20 04:44:49;;;;;;;4.50;2.83;;;11.20;40.20;;;;;;5013817;28;20512;-50
2023/04/20 04:47:28;;;;;;;3.00;2.70;;;11.30;40.30;;;;;;5014950;28;20061;-51
2023/04/20 04:49:55;;;;;;;3.40;2.58;;;11.30;41.20;;;;;;5009762;28;20049;-45
2023/04/20 04:52:22;;;;;;;5.22;2.95;;;11.30;40.50;;;;;;5032839;28;20556;-49
2023/04/20 04:54:48;;;;;;;7.15;3.25;;;11.40;40.70;;;;;;5029627;28;20044;-49
2023/04/20 04:57:15;;;;;;;4.35;2.75;;;11.40;40.90;;;;;;5030259;28;20045;-46
2023/04/20 04:59:42;;;;;;;4.28;3.42;;;11.40;40.90;;;;;;5013165;28;20576;-50
2023/04/20 05:02:08;;;;;;;3.45;2.92;;;11.50;41.00;;;;;;5027369;28;20129;-48
2023/04/20 05:04:35;;;;;;;5.13;2.70;;;11.40;40.90;;;;;;5020911;28;20069;-47
2023/04/20 05:07:02;;;;;;;5.78;3.15;;;11.40;40.90;;;;;;5021711;28;20579;-47
2023/04/20 05:09:32;;;;;;;3.47;2.83;;;11.50;41.00;;;;;;5032678;28;20099;-46
2023/04/20 05:11:59;;;;;;;7.25;2.95;;;11.40;40.90;;;;;;5031450;28;20052;-50
2023/04/20 05:14:30;;;;;;;4.07;2.80;;;11.50;41.00;;;;;;5027451;28;20046;-50
2023/04/20 05:16:58;;;;;;;4.53;2.78;;;11.50;41.20;;;;;;5039733;28;20047;-45
2023/04/20 05:19:24;;;;;;;4.63;3.55;;;11.50;40.90;;;;;;5037819;28;20042;-46
2023/04/20 05:21:51;;;;;;;5.40;3.17;;;11.50;41.20;;;;;;5027769;28;20065;-50
2023/04/20 05:24:18;;;;;;;3.75;3.25;;;11.50;41.40;;;;;;5026919;28;20052;-45
2023/04/20 05:26:45;;;;;;;4.63;3.58;;;11.50;41.40;;;;;;5040950;28;20041;-46
2023/04/20 05:29:13;;;;;;;4.57;3.20;;;11.50;41.40;;;;;;5039727;28;20037;-47
2023/04/20 05:31:39;;;;;;;4.05;2.97;;;11.50;41.50;;;;;;5023386;28;20045;-46
2023/04/20 05:34:06;;;;;;;5.82;2.75;;;11.50;41.50;;;;;;5031149;28;20091;-45
2023/04/20 05:36:33;;;;;;;4.22;2.90;;;11.60;41.60;;;;;;5030741;28;20052;-48
2023/04/20 05:38:59;;;;;;;3.63;3.17;;;11.60;41.70;;;;;;5040958;28;20481;-47
2023/04/20 05:41:26;;;;;;;3.30;2.88;;;11.60;41.80;;;;;;5033803;28;20050;-50
2023/04/20 05:43:55;;;;;;;4.93;3.35;;;11.60;41.90;;;;;;5031134;28;20440;-49
2023/04/20 05:46:22;;;;;;;6.05;3.05;;;11.60;41.90;;;;;;5030724;28;20053;-46
2023/04/20 05:48:52;;;;;;;3.78;3.25;;;11.60;42.00;;;;;;5032473;28;20505;-45
2023/04/20 05:51:21;;;;;;;4.93;2.88;;;11.60;42.00;;;;;;5040280;28;20041;-49
2023/04/20 05:53:47;;;;;;;3.50;2.78;;;11.60;42.30;;;;;;5033053;28;20316;-46
2023/04/20 05:56:14;;;;;;;6.10;3.35;;;11.70;42.20;;;;;;5028332;28;20042;-52
2023/04/20 05:58:41;;;;;;;6.05;3.13;;;11.70;42.30;;;;;;5026705;28;20069;-45
2023/04/20 06:01:10;;;;;;;5.90;3.15;;;11.70;42.40;;;;;;5027809;28;20048;-46
2023/04/20 06:03:36;;;;;;;4.70;3.00;;;11.70;42.60;;;;;;5030792;28;20050;-47
2023/04/20 06:06:04;;;;;;;7.15;3.17;;;11.70;42.80;;;;;;5022932;28;20057;-47
2023/04/20 06:08:31;;;;;;;4.47;3.55;;;11.70;42.90;;;;;;5030640;28;20061;-46
2023/04/20 06:10:58;;;;;;;4.00;3.40;;;11.80;43.10;;;;;;5031424;28;20520;-45
2023/04/20 06:13:25;;;;;;;4.47;3.20;;;11.80;43.30;;;;;;5013522;28;20052;-50
2023/04/20 06:15:52;;;;;;;3.95;2.78;;;11.80;43.30;;;;;;5018737;28;20042;-47
2023/04/20 06:18:19;;;;;;;3.75;3.28;;;11.80;43.40;;;;;;5031623;28;20100;-49
2023/04/20 06:20:46;;;;;;;6.80;3.78;;;11.80;43.60;;;;;;5030145;28;20053;-46
2023/04/20 06:23:13;;;;;;;4.70;3.25;;;11.90;43.80;;;;;;5020815;28;20042;-49
2023/04/20 06:25:39;;;;;;;3.17;2.65;;;11.90;43.90;;;;;;5030814;28;20857;-47
2023/04/20 06:28:06;;;;;;;4.43;3.38;;;12.00;44.00;;;;;;5031968;28;20410;-46
2023/04/20 06:30:35;;;;;;;6.05;3.40;;;12.00;44.00;;;;;;5029913;28;20405;-45
2023/04/20 06:33:02;;;;;;;3.67;3.38;;;12.00;44.10;;;;;;5038417;28;20045;-46
2023/04/20 06:35:29;;;;;;;4.45;3.00;;;12.10;44.20;;;;;;5035127;28;20053;-47
2023/04/20 06:37:56;;;;;;;5.00;3.47;;;12.10;44.30;;;;;;5039991;28;20034;-45
2023/04/20 06:40:26;;;;;;;4.88;3.22;;;12.10;44.40;;;;;;5017039;28;20041;-47
2023/04/20 06:42:53;;;;;;;3.40;2.78;;;12.00;44.80;;;;;;5032150;28;20044;-45
2023/04/20 06:45:20;;;;;;;4.55;3.20;;;12.10;44.70;;;;;;5030196;28;20045;-49
2023/04/20 06:47:46;;;;;;;7.80;3.40;;;12.10;44.80;;;;;;5021852;28;20041;-46
2023/04/20 06:50:13;;;;;;;5.95;4.03;;;12.10;45.00;;;;;;5026423;28;20063;-50
2023/04/20 06:52:40;;;;;;;6.10;3.80;;;12.10;45.10;;;;;;5031915;28;20056;-48
2023/04/20 06:55:07;;;;;;;5.35;3.25;;;12.10;45.10;;;;;;5029658;28;20052;-46
2023/04/20 06:57:34;;;;;;;5.38;3.20;;;12.10;45.10;;;;;;5015649;28;20786;-47
2023/04/20 07:00:01;;;;;;;3.58;3.13;;;12.20;45.20;;;;;;5025344;28;20124;-47
2023/04/20 07:02:27;;;;;;;6.07;4.30;;;12.20;45.30;;;;;;5031088;28;20042;-46
2023/04/20 07:05:00;;;;;;;5.45;3.60;;;12.20;45.40;;;;;;5008084;28;20052;-51
2023/04/20 07:07:26;;;;;;;4.15;3.35;;;12.30;45.90;;;;;;5019341;28;20129;-47
2023/04/20 07:09:55;;;;;;;5.57;3.75;;;12.30;45.30;;;;;;5030031;28;20497;-46
2023/04/20 07:12:22;;;;;;;3.45;2.92;;;12.30;45.30;;;;;;5030146;28;20420;-48
2023/04/20 07:14:49;;;;;;;3.97;3.15;;;12.20;45.50;;;;;;5028644;28;20050;-48
2023/04/20 07:17:15;;;;;;;4.90;3.58;;;12.20;45.70;;;;;;5030471;28;20037;-45
2023/04/20 07:19:42;;;;;;;4.30;3.90;;;12.20;45.80;;;;;;5030004;28;20533;-47
2023/04/20 07:22:09;;;;;;;5.82;4.20;;;12.20;45.70;;;;;;5031923;28;20705;-46
2023/04/20 07:24:38;;;;;;;6.88;3.78;;;12.20;45.80;;;;;;5040089;28;20052;-47
2023/04/20 07:27:06;;;;;;;4.35;3.60;;;12.20;45.80;;;;;;5035452;28;20045;-46
2023/04/20 07:29:33;;;;;;;4.68;4.10;;;12.20;45.90;;;;;;5029914;28;20405;-48
2023/04/20 07:32:00;;;;;;;4.40;4.00;;;12.20;46.10;;;;;;5027341;28;20041;-49
2023/04/20 07:34:26;;;;;;;6.07;4.03;;;12.10;46.20;;;;;;5020485;28;20379;-48
2023/04/20 07:36:53;;;;;;;7.00;3.80;;;12.10;46.40;;;;;;5026410;28;20456;-47
2023/04/20 07:39:20;;;;;;;4.95;4.22;;;12.10;46.60;;;;;;5029878;28;20409;-46
2023/04/20 07:41:46;;;;;;;5.75;4.15;;;12.10;46.50;;;;;;5018645;28;20042;-45
2023/04/20 07:44:13;;;;;;;6.80;4.78;;;12.10;46.50;;;;;;5018703;28;20037;-46
2023/04/20 07:46:44;;;;;;;5.80;4.30;;;12.20;46.60;;;;;;5029881;28;20044;-46
2023/04/20 07:49:11;;;;;;;6.20;5.05;;;12.20;46.60;;;;;;5027822;28;20052;-48
2023/04/20 07:51:38;;;;;;;5.82;5.10;;;12.20;46.70;;;;;;5028608;28;20053;-46
2023/04/20 07:54:04;;;;;;;5.22;4.72;;;12.20;46.80;;;;;;5036370;28;20044;-46
2023/04/20 07:56:31;;;;;;;5.43;4.57;;;12.20;46.80;;;;;;5031400;28;20117;-46
2023/04/20 07:59:00;;;;;;;5.82;5.25;;;12.20;46.90;;;;;;5025830;28;20520;-48
2023/04/20 08:01:27;;;;;;;6.05;5.45;;;12.20;46.90;;;;;;5042538;28;20067;-47
2023/04/20 08:03:54;;;;;;;7.22;5.57;;;12.20;47.00;;;;;;5036474;28;20041;-46
2023/04/20 08:06:21;;;;;;;8.52;5.68;;;12.20;47.10;;;;;;5014790;28;20538;-45
2023/04/20 08:08:48;;;;;;;7.30;5.38;;;12.20;47.10;;;;;;5021325;28;20045;-47
2023/04/20 08:11:15;;;;;;;7.03;5.85;;;12.20;47.10;;;;;;5029277;28;20037;-49
2023/04/20 08:13:41;;;;;;;7.80;5.32;;;12.20;47.20;;;;;;5020784;28;20049;-46
2023/04/20 08:16:08;;;;;;;7.10;5.53;;;12.20;47.30;;;;;;5024011;28;20041;-48
2023/04/20 08:18:37;;;;;;;7.47;5.88;;;12.20;47.40;;;;;;5028908;28;20065;-47
2023/04/20 08:21:04;;;;;;;6.95;6.35;;;12.20;47.50;;;;;;5027833;28;20406;-46
2023/04/20 08:23:30;;;;;;;7.10;6.18;;;12.20;47.60;;;;;;5029371;28;20127;-46
2023/04/20 08:25:57;;;;;;;8.10;7.30;;;12.20;47.60;;;;;;5029114;28;20061;-48
2023/04/20 08:28:24;;;;;;;9.23;7.55;;;12.30;47.80;;;;;;5028925;28;20052;-47
2023/04/20 08:30:57;;;;;;;8.55;7.72;;;12.30;47.60;;;;;;5022341;28;20116;-46
2023/04/20 08:33:24;;;;;;;8.60;7.55;;;12.30;47.60;;;;;;5029192;28;20042;-50
2023/04/20 08:35:51;;;;;;;7.97;7.28;;;12.40;48.30;;;;;;5033752;28;20057;-47
2023/04/20 08:38:21;;;;;;;11.13;8.90;;;12.30;47.80;;;;;;5037074;28;20512;-46
2023/04/20 08:40:59;;;;;;;9.98;8.15;;;12.40;47.80;;;;;;5033419;28;20061;-45
2023/04/20 08:43:25;;;;;;;10.82;9.07;;;12.30;47.90;;;;;;5029333;28;20041;-46
2023/04/20 08:46:00;;;;;;;10.70;9.63;;;12.40;48.10;;;;;;5014500;28;20041;-48
2023/04/20 08:48:35;;;;;;;11.52;9.93;;;12.40;48.60;;;;;;5030359;28;20060;-48
2023/04/20 08:51:07;;;;;;;;;;;12.50;48.70;;;;;;5020229;28;20042;-46
2023/04/20 08:53:33;;;;;;;9.37;8.27;;;12.60;47.90;;;;;;5028399;28;20012;-48
2023/04/20 08:56:00;;;;;;;11.02;9.00;;;12.70;47.90;;;;;;5028197;28;20292;-48
2023/04/20 08:58:31;;;;;;;10.60;8.77;;;12.70;47.90;;;;;;5029754;28;20033;-49
2023/04/20 09:00:59;;;;;;;9.95;8.90;;;12.80;48.20;;;;;;5037930;28;20037;-49
2023/04/20 09:03:33;;;;;;;9.00;8.07;;;13.00;47.70;;;;;;5038437;28;20033;-47
2023/04/20 09:06:01;;;;;;;9.43;7.60;;;13.00;47.80;;;;;;5027325;28;20061;-47
2023/04/20 09:08:39;;;;;;;8.75;7.85;;;13.00;47.40;;;;;;5026402;28;20413;-47
2023/04/20 09:11:06;;;;;;;8.45;7.60;;;13.10;47.60;;;;;;5011169;28;20045;-48
2023/04/20 09:13:34;;;;;;;10.55;8.50;;;13.20;47.10;;;;;;5023730;28;20045;-47
2023/04/20 09:16:18;;;;;;;9.38;8.40;;;13.20;47.10;;;;;;5034939;28;20060;-50
2023/04/20 09:18:56;;;;;;;10.35;9.27;;;13.20;47.40;;;;;;5040653;28;20045;-49
2023/04/20 09:21:26;;;;;;;9.57;8.38;;;13.20;47.60;;;;;;5035701;28;20040;-47
2023/04/20 09:24:05;;;;;;;10.25;8.25;;;13.20;47.30;;;;;;5010979;28;20041;-48
2023/04/20 09:26:33;;;;;;;10.07;8.98;;;13.20;47.30;;;;;;5032484;28;20044;-47
2023/04/20 09:29:01;;;;;;;10.75;8.40;;;13.20;47.00;;;;;;5038480;28;20041;-47
2023/04/20 09:31:28;;;;;;;9.77;8.82;;;13.20;46.90;;;;;;5031080;28;20413;-47
2023/04/20 09:34:00;;;;;;;11.50;9.25;;;13.10;46.90;;;;;;5034212;28;20087;-47
2023/04/20 09:36:37;;;;;;;9.15;8.20;;;13.10;46.90;;;;;;5032831;28;20413;-47
2023/04/20 09:39:12;;;;;;;10.88;8.43;;;13.10;47.30;;;;;;5028468;28;20069;-46
2023/04/20 09:41:44;;;;;;;9.48;7.65;;;13.10;47.20;;;;;;5041502;28;20087;-47
2023/04/20 09:44:12;;;;;;;9.55;8.75;;;13.00;46.90;;;;;;5056323;22;20056;-50
2023/04/20 09:46:40;;;;;;;10.40;8.32;;;13.00;47.00;;;;;;5029322;28;20045;-50
2023/04/20 09:49:09;;;;;;;9.07;7.93;;;13.00;47.00;;;;;;5044677;28;20041;-45
2023/04/20 09:51:38;;;;;;;8.43;7.63;;;13.00;47.20;;;;;;5044077;28;20500;-50
2023/04/20 09:54:05;;;;;;;8.73;7.88;;;13.00;47.30;;;;;;5045083;28;20041;-47
2023/04/20 09:56:33;;;;;;;8.10;7.30;;;13.10;47.20;;;;;;5041572;28;20045;-46
2023/04/20 09:59:01;;;;;;;9.15;7.90;;;13.10;47.10;;;;;;5029637;28;20037;-46
2023/04/20 10:01:35;;;;;;;8.55;7.47;;;13.20;47.20;;;;;;5030629;28;20447;-47
2023/04/20 10:04:05;;;;;;;8.00;7.20;;;13.20;47.30;;;;;;5024251;28;20037;-46
2023/04/20 10:06:34;;;;;;;7.25;6.55;;;13.20;47.00;;;;;;5040444;28;20041;-50
2023/04/20 10:09:03;;;;;;;8.40;7.60;;;13.20;46.70;;;;;;5045675;28;20499;-51
2023/04/20 10:11:32;;;;;;;10.13;7.35;;;13.30;46.80;;;;;;5030674;28;20047;-50
2023/04/20 10:14:21;;;;;;;10.10;7.53;;;13.30;46.80;;;;;;5030296;28;20044;-46
2023/04/20 10:17:02;;;;;;;9.00;6.93;;;13.30;47.10;;;;;;5032099;28;20033;-49
2023/04/20 10:19:42;;;;;;;8.63;6.53;;;13.30;47.30;;;;;;5027505;28;20044;-46
2023/04/20 10:22:11;;;;;;;7.65;6.45;;;13.20;47.60;;;;;;5029059;28;20072;-49
2023/04/20 10:24:38;;;;;;;7.07;6.35;;;13.20;47.20;;;;;;5030618;28;20041;-50
2023/04/20 10:27:19;;;;;;;8.75;7.95;;;13.10;47.60;;;;;;5027582;28;20064;-50
2023/04/20 10:29:46;;;;;;;8.65;7.85;;;13.00;48.70;;;;;;5032028;28;20045;-46
2023/04/20 10:32:25;;;;;;;8.80;7.90;;;12.90;48.30;;;;;;5030616;28;20049;-47
2023/04/20 10:35:12;;;;;;;7.65;6.50;;;12.90;49.60;;;;;;5027971;28;20121;-45
2023/04/20 10:37:49;;;;;;;8.13;6.55;;;12.80;49.60;;;;;;5029611;28;20038;-46
2023/04/20 10:40:23;;;;;;;7.82;6.03;;;12.80;50.80;;;;;;5031588;28;20437;-47
2023/04/20 10:42:52;;;;;;;6.43;5.22;;;12.70;50.00;;;;;;5028098;28;20059;-48
2023/04/20 10:45:20;;;;;;;6.03;5.13;;;12.70;50.70;;;;;;5034534;28;20033;-49
2023/04/20 10:47:47;;;;;;;6.03;5.40;;;12.60;50.80;;;;;;5034260;28;20633;-48
2023/04/20 10:50:15;;;;;;;5.53;5.00;;;12.60;51.70;;;;;;5033043;28;20042;-47
2023/04/20 10:52:45;;;;;;;5.55;5.05;;;12.70;52.30;;;;;;5029804;28;20045;-46
2023/04/20 10:55:25;;;;;;;7.40;5.50;;;12.70;52.90;;;;;;5027464;28;20049;-46
2023/04/20 10:57:52;;;;;;;6.75;6.03;;;12.90;54.40;;;;;;5031670;28;20057;-50
2023/04/20 11:00:26;;;;;;;5.97;5.00;;;13.00;53.20;;;;;;5024397;28;20037;-46
2023/04/20 11:02:55;;;;;;;6.00;5.35;;;13.30;53.90;;;;;;5027781;28;20045;-47
2023/04/20 11:05:24;;;;;;;7.60;5.63;;;13.50;53.90;;;;;;5006668;28;20037;-46
2023/04/20 11:07:55;;;;;;;5.40;4.90;;;13.70;53.30;;;;;;5031796;28;20072;-46
2023/04/20 11:10:40;;;;;;;4.78;4.38;;;13.90;52.90;;;;;;5030197;28;20096;-47
2023/04/20 11:13:18;;;;;;;4.75;4.22;;;14.10;52.20;;;;;;5022348;28;20073;-48
2023/04/20 11:15:45;;;;;;;4.65;4.25;;;14.30;51.60;;;;;;5027939;28;20041;-46
2023/04/20 11:18:11;;;;;;;6.70;5.45;;;14.50;50.20;;;;;;5028800;28;20398;-44
2023/04/20 11:20:54;;;;;;;5.50;4.45;;;14.60;50.00;;;;;;5029358;28;20045;-47
2023/04/20 11:23:27;;;;;;;6.45;5.85;;;14.80;49.80;;;;;;5030557;28;20037;-45
2023/04/20 11:25:55;;;;;;;6.97;6.22;;;14.90;49.40;;;;;;5029915;28;20056;-47
2023/04/20 11:28:23;;;;;;;6.80;6.10;;;15.00;48.80;;;;;;5027424;28;20045;-47
2023/04/20 11:30:49;;;;;;;6.70;6.00;;;15.00;49.10;;;;;;5028083;28;20140;-50
2023/04/20 11:33:30;;;;;;;6.07;5.57;;;15.10;48.50;;;;;;5029000;28;20037;-47
2023/04/20 11:36:01;;;;;;;7.93;7.13;;;15.10;48.90;;;;;;5025051;28;20048;-46
2023/04/20 11:38:27;;;;;;;8.82;8.00;;;15.00;48.50;;;;;;5031796;28;20109;-46
2023/04/20 11:40:54;;;;;;;8.70;7.90;;;15.00;48.40;;;;;;5033364;28;20870;-49
2023/04/20 11:43:21;;;;;;;6.50;5.90;;;14.90;48.30;;;;;;5028346;28;20486;-47
2023/04/20 11:45:48;;;;;;;5.70;5.10;;;14.80;48.20;;;;;;5029276;28;20440;-46
2023/04/20 11:48:18;;;;;;;4.22;3.83;;;14.80;48.50;;;;;;5044459;28;20046;-46
2023/04/20 11:50:45;;;;;;;4.18;3.38;;;14.70;48.50;;;;;;5034813;28;20041;-46
2023/04/20 11:53:13;;;;;;;3.88;3.40;;;14.60;48.50;;;;;;5031778;28;20429;-48
2023/04/20 11:55:43;;;;;;;3.95;3.55;;;14.50;49.10;;;;;;5030303;28;20116;-47
2023/04/20 11:58:09;;;;;;;3.40;3.10;;;14.50;49.20;;;;;;5030786;28;20254;-46
2023/04/20 12:00:36;;;;;;;3.67;2.90;;;14.40;49.50;;;;;;5024637;28;20037;-47
2023/04/20 12:03:03;;;;;;;3.80;3.30;;;14.40;49.60;;;;;;5029326;28;20044;-46
2023/04/20 12:05:29;;;;;;;3.30;3.00;;;14.30;50.30;;;;;;5026912;28;20199;-47
2023/04/20 12:07:56;;;;;;;3.03;2.80;;;14.30;50.50;;;;;;5029419;28;20041;-48
2023/04/20 12:10:23;;;;;;;3.25;2.95;;;14.30;51.70;;;;;;5028701;28;20148;-48
2023/04/20 12:12:52;;;;;;;2.67;2.47;;;14.30;52.80;;;;;;5026482;28;20139;-48
2023/04/20 12:15:19;;;;;;;3.17;2.88;;;14.50;52.50;;;;;;5028998;28;20052;-48
2023/04/20 12:17:46;;;;;;;3.00;2.75;;;14.60;53.00;;;;;;5030228;28;20112;-50
2023/04/20 12:20:13;;;;;;;2.97;2.70;;;14.80;52.20;;;;;;5025731;28;20033;-46
2023/04/20 12:22:40;;;;;;;2.53;2.33;;;14.90;51.50;;;;;;5045990;28;20516;-45
2023/04/20 12:25:07;;;;;;;2.33;2.13;;;15.00;50.70;;;;;;5043978;28;20037;-46
2023/04/20 12:27:36;;;;;;;3.42;2.30;;;15.10;50.30;;;;;;5029372;28;20482;-48
2023/04/20 12:30:03;;;;;;;2.83;2.60;;;15.20;50.90;;;;;;5021830;28;20394;-47
2023/04/20 12:32:29;;;;;;;2.22;2.03;;;15.20;51.00;;;;;;5045159;28;20542;-47
2023/04/20 12:34:59;;;;;;;2.17;1.98;;;15.20;51.00;;;;;;5027194;28;20073;-50
2023/04/20 12:37:26;;;;;;;2.25;2.05;;;15.30;51.40;;;;;;5025118;28;20137;-45
2023/04/20 12:39:52;;;;;;;2.17;1.98;;;15.40;50.80;;;;;;5029128;28;20048;-47
2023/04/20 12:42:19;;;;;;;2.03;1.90;;;15.40;51.30;;;;;;5028679;28;20033;-46
2023/04/20 12:44:46;;;;;;;2.83;1.95;;;15.50;51.60;;;;;;5023584;28;20044;-45
2023/04/20 12:47:13;;;;;;;2.45;2.30;;;15.60;51.70;;;;;;5028944;28;20528;-50
2023/04/20 12:49:39;;;;;;;2.25;2.05;;;15.80;51.60;;;;;;5028197;28;20049;-47
2023/04/20 12:52:06;;;;;;;2.33;2.13;;;15.90;52.10;;;;;;5025514;28;20045;-46
2023/04/20 12:54:34;;;;;;;1.88;1.58;;;16.20;52.00;;;;;;5028814;28;20048;-49
2023/04/20 12:57:01;;;;;;;2.47;1.90;;;16.30;51.60;;;;;;5029320;28;20512;-51